Time;durP1;ratioP1;P1;durP2;ratioP2;P2;SDS_P1;SDS_P2;PMS_P1;PMS_P2;Temp;Humidity;BMP_temperature;BMP_pressure;BME280_temperature;BME280_humidity;BME280_pressure;Samples;Min_cycle;Max_cycle;Signal;HPM_P1;HPM_P2
2021/10/17 00:00:33;;;;;;;8.02;5.72;;;6.40;68.80;;;5.49;54.19;95351.72;5034928;28;20348;-79
2021/10/17 00:03:00;;;;;;;10.98;6.65;;;6.40;69.10;;;5.49;54.51;95351.72;5051528;28;20216;-80
2021/10/17 00:05:31;;;;;;;12.10;7.22;;;6.40;69.10;;;5.50;54.59;95353.34;5051452;28;20585;-79
2021/10/17 00:07:59;;;;;;;9.27;6.80;;;6.30;69.30;;;5.50;54.67;95348.16;5034872;28;20223;-80
2021/10/17 00:10:31;;;;;;;11.25;6.25;;;6.30;69.10;;;5.47;54.64;95353.63;5033357;28;20199;-79
2021/10/17 00:13:00;;;;;;;10.60;6.38;;;6.30;69.40;;;5.47;54.68;95344.06;5018574;28;20239;-80
2021/10/17 00:15:29;;;;;;;9.60;7.20;;;6.30;69.20;;;5.45;54.61;95348.59;5031384;28;20199;-80
2021/10/17 00:18:00;;;;;;;11.57;7.55;;;6.30;69.40;;;5.41;55.05;95342.06;5015227;28;20263;-80
2021/10/17 00:20:27;;;;;;;9.85;6.88;;;6.30;69.60;;;5.44;54.92;95352.16;5014740;28;20254;-80
2021/10/17 00:22:57;;;;;;;9.88;6.82;;;6.30;69.60;;;5.42;54.93;95346.28;5018022;28;20219;-80
2021/10/17 00:25:26;;;;;;;9.50;6.20;;;6.30;69.60;;;5.41;55.00;95350.69;5018488;28;20226;-80
2021/10/17 00:27:54;;;;;;;11.60;7.18;;;6.20;69.50;;;5.38;54.94;95351.00;5034565;28;20211;-79
2021/10/17 00:30:40;;;;;;;10.82;7.28;;;6.30;69.50;;;5.41;54.87;95352.47;5037281;28;20286;-78
2021/10/17 00:33:08;;;;;;;13.82;7.88;;;6.20;69.40;;;5.37;55.14;95344.16;5034697;28;20199;-80
2021/10/17 00:35:36;;;;;;;11.10;7.43;;;6.30;69.70;;;5.39;55.36;95350.00;5052201;28;20184;-79
2021/10/17 00:38:03;;;;;;;12.40;7.72;;;6.20;69.80;;;5.43;55.22;95360.94;5018113;28;20243;-79
2021/10/17 00:40:30;;;;;;;12.98;8.25;;;6.20;69.80;;;5.44;55.13;95358.19;5018166;28;20603;-80
2021/10/17 00:42:58;;;;;;;12.05;7.60;;;6.20;70.00;;;5.51;55.37;95352.41;5034026;28;20228;-79
2021/10/17 00:45:30;;;;;;;10.63;7.35;;;6.20;70.10;;;5.58;55.29;95353.44;5034755;28;20650;-80
2021/10/17 00:47:59;;;;;;;14.70;7.97;;;6.20;70.70;;;5.64;55.57;95342.44;5047986;28;20231;-80
2021/10/17 00:50:28;;;;;;;12.80;8.00;;;6.20;70.50;;;5.66;55.40;95337.88;5014761;28;20201;-80
2021/10/17 00:52:58;;;;;;;10.75;7.63;;;6.30;70.50;;;5.80;55.27;95354.75;5014482;28;20220;-79
2021/10/17 00:55:28;;;;;;;10.63;7.30;;;6.40;70.60;;;5.87;55.32;95352.34;5031515;28;20228;-80
2021/10/17 00:58:17;;;;;;;10.25;7.07;;;6.40;70.60;;;5.93;55.65;95344.75;5026109;28;20192;-80
2021/10/17 01:00:45;;;;;;;13.23;7.90;;;6.50;71.00;;;5.98;55.47;95341.69;5034131;28;20204;-79
2021/10/17 01:03:12;;;;;;;10.85;7.55;;;6.50;70.60;;;6.02;55.31;95334.44;5051120;28;20302;-80
2021/10/17 01:05:40;;;;;;;11.50;7.07;;;6.60;70.70;;;6.07;55.45;95334.78;5050721;28;20299;-80
2021/10/17 01:08:07;;;;;;;10.32;7.38;;;6.60;70.60;;;6.09;55.31;95338.03;5050654;28;20249;-79
2021/10/17 01:10:34;;;;;;;12.73;7.43;;;6.70;70.70;;;6.15;55.59;95345.25;5033771;28;20192;-80
2021/10/17 01:13:02;;;;;;;11.73;7.65;;;6.70;70.70;;;6.12;55.53;95329.94;5034389;28;20195;-79
2021/10/17 01:15:34;;;;;;;11.75;7.80;;;6.70;70.70;;;6.22;55.50;95335.03;5035488;28;20203;-79
2021/10/17 01:18:02;;;;;;;14.02;7.72;;;6.80;70.80;;;6.23;55.73;95326.25;5034088;28;20727;-80
2021/10/17 01:20:29;;;;;;;10.63;7.32;;;6.80;70.70;;;6.29;55.50;95330.03;5051144;28;20215;-80
2021/10/17 01:22:58;;;;;;;12.13;7.90;;;6.80;70.70;;;6.23;55.82;95324.44;5054468;28;20212;-80
2021/10/17 01:25:25;;;;;;;11.10;7.43;;;6.90;71.70;;;6.28;55.57;95329.19;5071161;28;20251;-80
2021/10/17 01:27:52;;;;;;;11.02;7.47;;;6.90;70.70;;;6.27;55.41;95329.38;5037329;28;20269;-80
2021/10/17 01:30:19;;;;;;;10.10;7.45;;;6.90;70.60;;;6.22;55.38;95322.00;5038024;28;20246;-79
2021/10/17 01:32:48;;;;;;;9.40;6.97;;;6.90;70.60;;;6.18;55.81;95325.91;5038093;28;20218;-79
2021/10/17 01:35:16;;;;;;;9.70;7.25;;;6.90;70.50;;;6.16;55.50;95330.44;5054211;28;20283;-79
2021/10/17 01:37:44;;;;;;;10.00;6.78;;;6.90;70.40;;;6.11;55.52;95325.69;5021843;28;20505;-79
2021/10/17 01:40:14;;;;;;;11.35;7.15;;;6.90;70.40;;;6.06;55.92;95325.34;5050609;28;20228;-80
2021/10/17 01:42:41;;;;;;;9.27;6.57;;;6.90;70.30;;;5.99;55.88;95325.13;5050597;28;20244;-80
2021/10/17 01:45:09;;;;;;;11.15;7.50;;;6.80;70.30;;;5.91;55.40;95319.84;5049617;28;20227;-79
2021/10/17 01:47:38;;;;;;;9.30;6.80;;;6.80;70.30;;;5.90;55.64;95316.41;5056079;28;20266;-80
2021/10/17 01:50:06;;;;;;;9.50;6.72;;;6.70;70.40;;;5.85;55.82;95315.25;5054166;28;20222;-80
2021/10/17 01:52:33;;;;;;;9.57;6.95;;;6.70;70.40;;;5.84;55.78;95311.81;5037447;28;20551;-79
2021/10/17 01:55:01;;;;;;;9.15;6.65;;;6.70;70.30;;;5.80;55.72;95309.66;5037722;28;20192;-80
2021/10/17 01:57:28;;;;;;;7.78;6.30;;;6.70;70.30;;;5.71;55.50;95311.41;5037060;28;20215;-79
2021/10/17 01:59:56;;;;;;;10.95;6.70;;;6.60;70.10;;;5.65;55.67;95304.19;5054103;28;20192;-80
2021/10/17 02:02:44;;;;;;;7.45;5.97;;;6.60;71.20;;;5.55;56.02;95297.28;5033318;28;20240;-79
2021/10/17 02:05:25;;;;;;;10.65;6.22;;;6.50;70.20;;;5.50;55.75;95299.53;5019296;28;20316;-80
2021/10/17 02:07:55;;;;;;;10.57;7.05;;;6.50;70.20;;;5.49;56.74;95303.09;5047777;28;20239;-80
2021/10/17 02:10:23;;;;;;;9.88;7.20;;;6.40;70.20;;;5.45;56.19;95305.19;5037444;28;20207;-79
2021/10/17 02:12:53;;;;;;;11.70;7.05;;;6.40;70.40;;;5.45;56.40;95306.97;5037690;28;20246;-80
2021/10/17 02:15:21;;;;;;;10.38;6.38;;;6.30;70.50;;;5.41;56.54;95303.84;5037470;28;20204;-80
2021/10/17 02:17:48;;;;;;;12.43;5.85;;;6.30;70.40;;;5.38;56.17;95296.38;5036165;28;20240;-79
2021/10/17 02:20:15;;;;;;;9.98;5.57;;;6.30;70.40;;;5.32;56.13;95291.72;5053558;28;20204;-80
2021/10/17 02:22:43;;;;;;;10.90;5.93;;;6.20;70.30;;;5.31;55.97;95300.53;5036837;28;20239;-80
2021/10/17 02:25:10;;;;;;;9.40;6.05;;;6.20;70.40;;;5.25;56.23;95298.53;5053047;28;20219;-80
2021/10/17 02:27:38;;;;;;;9.48;6.45;;;6.20;70.40;;;5.21;55.96;95291.97;5036724;28;20225;-79
2021/10/17 02:30:09;;;;;;;9.73;6.32;;;6.10;70.30;;;5.18;55.93;95302.69;5021289;28;20200;-80
2021/10/17 02:32:41;;;;;;;9.45;5.95;;;6.10;70.30;;;5.10;56.00;95299.03;5036450;28;20227;-79
2021/10/17 02:35:16;;;;;;;10.07;6.82;;;6.00;70.30;;;5.04;56.10;95293.59;5037925;28;20231;-79
2021/10/17 02:37:44;;;;;;;9.50;6.13;;;6.10;70.40;;;5.02;55.90;95300.75;5032693;28;20231;-79
2021/10/17 02:40:13;;;;;;;9.43;6.85;;;5.90;70.30;;;4.98;56.03;95300.22;5049443;28;20196;-79
2021/10/17 02:42:40;;;;;;;10.98;7.20;;;5.90;70.30;;;4.94;57.01;95291.06;5066388;28;20255;-80
2021/10/17 02:45:08;;;;;;;9.63;6.78;;;5.90;70.60;;;4.95;56.77;95288.31;5007564;28;20307;-80
2021/10/17 02:47:35;;;;;;;8.93;6.45;;;5.90;70.80;;;4.95;56.70;95284.91;5035236;28;20220;-78
2021/10/17 02:50:05;;;;;;;10.73;6.10;;;5.80;70.80;;;4.96;56.55;95289.16;5017692;28;20189;-79
2021/10/17 02:52:33;;;;;;;7.90;6.15;;;5.80;70.80;;;4.93;56.31;95277.28;5035747;28;20258;-79
2021/10/17 02:55:00;;;;;;;10.35;6.30;;;5.80;70.80;;;4.94;56.45;95278.91;5049802;28;20238;-78
2021/10/17 02:57:27;;;;;;;13.88;6.63;;;5.80;70.90;;;5.00;56.40;95281.88;5035427;28;20299;-78
2021/10/17 02:59:55;;;;;;;8.23;6.15;;;5.80;70.80;;;4.99;56.40;95278.44;5052745;28;20204;-78
2021/10/17 03:02:22;;;;;;;7.78;6.03;;;5.90;70.80;;;4.97;56.04;95280.38;5051709;28;20698;-78
2021/10/17 03:04:49;;;;;;;8.40;6.18;;;5.80;70.70;;;4.93;56.49;95269.47;5034288;28;20310;-79
2021/10/17 03:07:16;;;;;;;8.25;6.05;;;5.80;70.70;;;4.92;56.32;95275.63;5032606;28;20213;-79
2021/10/17 03:09:55;;;;;;;10.48;6.50;;;5.80;70.80;;;4.89;56.58;95278.50;5032909;28;20196;-79
2021/10/17 03:12:23;;;;;;;6.80;5.57;;;5.70;70.60;;;4.87;56.33;95275.25;5024140;28;20211;-79
2021/10/17 03:14:55;;;;;;;9.32;6.03;;;5.70;70.70;;;4.83;56.53;95273.91;5034791;28;20216;-79
2021/10/17 03:17:22;;;;;;;8.43;6.07;;;5.70;70.60;;;4.77;56.33;95270.13;5030227;28;20287;-79
2021/10/17 03:19:49;;;;;;;8.88;6.10;;;5.80;70.70;;;4.71;56.31;95265.53;5030438;28;20283;-78
2021/10/17 03:22:17;;;;;;;9.90;6.75;;;5.70;70.70;;;4.70;56.53;95271.69;5029125;28;20306;-79
2021/10/17 03:24:44;;;;;;;9.82;6.22;;;5.60;70.70;;;4.69;56.29;95277.00;5011920;28;20307;-79
2021/10/17 03:27:11;;;;;;;6.90;5.75;;;5.60;70.70;;;4.67;56.51;95276.34;5036436;28;20212;-79
2021/10/17 03:29:43;;;;;;;9.13;6.40;;;5.60;70.80;;;4.66;56.68;95285.91;5028602;28;20201;-79
2021/10/17 03:32:10;;;;;;;10.57;6.70;;;5.60;70.90;;;4.63;56.94;95286.22;5012765;28;20270;-79
2021/10/17 03:34:38;;;;;;;10.48;6.30;;;5.50;70.90;;;4.62;56.76;95287.16;5031442;28;20692;-80
2021/10/17 03:37:05;;;;;;;8.48;6.50;;;5.50;70.90;;;4.59;56.80;95284.84;5032442;28;20732;-80
2021/10/17 03:39:33;;;;;;;8.50;6.30;;;5.50;70.90;;;4.55;56.97;95280.91;5031756;28;20235;-80
2021/10/17 03:42:00;;;;;;;11.52;7.18;;;5.40;71.00;;;4.53;56.80;95283.66;5051099;28;20768;-79
2021/10/17 03:44:27;;;;;;;8.48;6.45;;;5.40;71.10;;;4.51;56.81;95271.78;5035041;28;20269;-79
2021/10/17 03:46:55;;;;;;;8.80;6.40;;;5.40;71.20;;;4.55;56.96;95286.91;5051496;28;20211;-80
2021/10/17 03:49:23;;;;;;;8.88;6.43;;;5.40;71.30;;;4.53;56.75;95282.84;5035909;28;20192;-80
2021/10/17 03:51:51;;;;;;;10.20;6.78;;;5.40;71.30;;;4.46;56.68;95280.81;5019193;28;20224;-80
2021/10/17 03:54:19;;;;;;;9.15;5.75;;;5.40;71.20;;;4.47;56.83;95274.66;5035408;28;20657;-79
2021/10/17 03:56:46;;;;;;;7.75;5.45;;;5.30;71.20;;;4.44;56.80;95280.16;5034414;28;20211;-79
2021/10/17 03:59:16;;;;;;;9.45;6.07;;;5.30;71.10;;;4.42;56.91;95282.06;5019714;28;20204;-79
2021/10/17 04:01:46;;;;;;;11.45;6.85;;;5.30;71.00;;;4.40;56.92;95286.59;5051761;28;20220;-79
2021/10/17 04:04:14;;;;;;;9.02;6.60;;;5.30;71.10;;;4.36;56.98;95279.22;5051717;28;20234;-80
2021/10/17 04:06:41;;;;;;;12.55;6.70;;;5.30;71.30;;;4.33;57.37;95285.53;5031350;28;20328;-79
2021/10/17 04:09:29;;;;;;;12.05;7.15;;;5.20;72.20;;;4.33;57.55;95288.97;5059138;28;20216;-79
2021/10/17 04:11:56;;;;;;;8.98;6.50;;;5.20;71.30;;;4.32;57.44;95292.50;5015296;28;20255;-80
2021/10/17 04:14:26;;;;;;;9.73;6.90;;;5.20;71.40;;;4.36;57.58;95297.41;5048264;28;20204;-79
2021/10/17 04:16:53;;;;;;;10.02;6.93;;;5.20;71.50;;;4.36;57.65;95300.00;5030418;28;20231;-79
2021/10/17 04:19:21;;;;;;;10.38;6.82;;;5.20;71.60;;;4.35;57.78;95295.78;5035073;28;20254;-80
2021/10/17 04:21:48;;;;;;;8.48;6.72;;;5.20;71.70;;;4.34;57.41;95294.97;5067703;28;20212;-80
2021/10/17 04:24:16;;;;;;;11.77;7.30;;;5.20;71.70;;;4.29;57.62;95291.97;5047296;28;20607;-79
2021/10/17 04:26:43;;;;;;;10.65;6.75;;;5.20;71.50;;;4.30;57.78;95291.84;5015088;28;20216;-80
2021/10/17 04:29:12;;;;;;;10.88;7.07;;;5.20;71.50;;;4.29;57.47;95291.97;5031629;28;20590;-80
2021/10/17 04:31:39;;;;;;;11.20;7.30;;;5.20;71.70;;;4.25;57.12;95291.44;5034822;28;20259;-80
2021/10/17 04:34:06;;;;;;;12.30;7.70;;;5.10;71.50;;;4.25;57.55;95293.25;5034848;28;20249;-80
2021/10/17 04:36:35;;;;;;;9.57;6.35;;;5.10;71.70;;;4.22;57.45;95289.13;5031233;28;20748;-79
2021/10/17 04:39:06;;;;;;;10.60;6.53;;;5.10;71.70;;;4.20;57.45;95288.47;5031155;28;20208;-80
2021/10/17 04:41:34;;;;;;;8.18;6.43;;;5.10;72.00;;;4.18;57.45;95281.78;5014942;28;20224;-80
2021/10/17 04:44:02;;;;;;;9.70;6.55;;;5.10;71.60;;;4.09;57.38;95268.69;5014869;28;20212;-80
2021/10/17 04:46:30;;;;;;;9.27;5.88;;;5.10;71.70;;;4.12;57.30;95277.97;5031229;28;20224;-79
2021/10/17 04:48:57;;;;;;;11.60;6.40;;;5.20;71.60;;;4.05;57.34;95263.94;5050998;28;20201;-79
2021/10/17 04:51:24;;;;;;;9.00;6.43;;;5.00;71.50;;;4.06;57.64;95274.16;5034374;28;20220;-79
2021/10/17 04:53:51;;;;;;;12.50;6.25;;;5.00;71.60;;;4.04;57.28;95273.50;5051287;28;20419;-80
2021/10/17 04:56:19;;;;;;;8.45;6.53;;;5.00;71.60;;;4.03;57.14;95271.03;5036062;28;20219;-80
2021/10/17 04:58:46;;;;;;;9.18;6.93;;;4.90;71.50;;;3.99;57.53;95273.09;5038750;28;20203;-80
2021/10/17 05:01:14;;;;;;;8.80;7.15;;;4.90;71.50;;;3.99;57.37;95275.69;5038824;28;20216;-79
2021/10/17 05:03:43;;;;;;;9.88;6.78;;;4.90;71.80;;;3.97;57.67;95283.63;5022629;28;20215;-80
2021/10/17 05:06:10;;;;;;;8.77;6.57;;;4.90;71.80;;;3.91;57.79;95279.00;5021617;28;20704;-79
2021/10/17 05:08:39;;;;;;;11.43;7.30;;;4.80;71.80;;;3.95;57.67;95287.31;5055039;28;20195;-78
2021/10/17 05:11:07;;;;;;;13.48;7.88;;;4.90;72.10;;;3.95;57.56;95292.50;5022352;28;20223;-79
2021/10/17 05:13:35;;;;;;;8.98;7.05;;;4.80;72.20;;;3.96;57.90;95294.16;5054635;28;20541;-80
2021/10/17 05:16:03;;;;;;;11.77;7.82;;;4.80;72.20;;;3.97;57.73;95288.81;5070788;28;20219;-79
2021/10/17 05:18:31;;;;;;;12.07;7.20;;;4.80;72.20;;;3.99;57.83;95280.88;5037953;28;20226;-79
2021/10/17 05:21:01;;;;;;;10.75;7.78;;;4.80;72.20;;;4.01;57.70;95289.34;5038841;28;20287;-79
2021/10/17 05:23:29;;;;;;;11.20;8.10;;;4.80;72.20;;;4.04;57.87;95289.06;5054645;28;20673;-80
2021/10/17 05:25:57;;;;;;;10.52;7.32;;;4.80;72.20;;;4.11;58.04;95297.09;5037873;28;20239;-80
2021/10/17 05:28:24;;;;;;;10.73;7.75;;;4.80;72.20;;;4.16;57.74;95293.13;5037818;28;20203;-79
2021/10/17 05:30:55;;;;;;;9.35;7.45;;;4.90;72.30;;;4.25;57.83;95296.63;5038559;28;20254;-79
2021/10/17 05:33:23;;;;;;;9.82;6.82;;;4.90;72.40;;;4.33;58.08;95295.91;5038000;28;20200;-80
2021/10/17 05:35:51;;;;;;;13.48;7.70;;;4.90;72.60;;;4.41;58.15;95296.03;5038282;28;20212;-80
2021/10/17 05:38:18;;;;;;;10.30;7.93;;;5.00;72.70;;;4.49;58.01;95295.28;5050520;28;20658;-80
2021/10/17 05:40:45;;;;;;;11.55;7.13;;;5.00;72.80;;;4.54;58.12;95290.50;5024817;28;20196;-80
2021/10/17 05:43:13;;;;;;;10.70;8.20;;;5.10;72.70;;;4.59;58.05;95295.25;5018073;28;20226;-80
2021/10/17 05:45:40;;;;;;;11.73;7.43;;;5.10;72.50;;;4.61;57.78;95295.91;5054172;28;20212;-79
2021/10/17 05:48:08;;;;;;;13.43;8.63;;;5.20;72.60;;;4.61;57.42;95296.75;5037835;28;20253;-79
2021/10/17 05:50:35;;;;;;;13.95;8.27;;;5.20;72.50;;;4.65;57.96;95305.88;5053884;28;20192;-79
2021/10/17 05:53:03;;;;;;;11.55;8.52;;;5.30;72.60;;;4.64;58.09;95298.25;5037826;28;20533;-80
2021/10/17 05:55:30;;;;;;;12.93;7.90;;;5.30;72.60;;;4.67;58.10;95313.53;5037331;28;20200;-80
2021/10/17 05:57:59;;;;;;;10.45;7.85;;;5.30;72.60;;;4.64;58.30;95311.22;5037040;28;20216;-78
2021/10/17 06:00:26;;;;;;;13.20;8.35;;;5.30;72.60;;;4.64;58.18;95311.22;5035170;28;20211;-78
2021/10/17 06:03:00;;;;;;;15.82;8.45;;;5.40;72.70;;;4.65;58.19;95312.84;5038061;28;20256;-78
2021/10/17 06:05:49;;;;;;;12.55;8.18;;;5.40;72.70;;;4.65;57.96;95316.28;5067020;28;20224;-79
2021/10/17 06:08:19;;;;;;;10.60;8.63;;;5.40;72.70;;;4.65;58.21;95318.03;5070174;28;20212;-78
2021/10/17 06:10:47;;;;;;;10.20;7.45;;;5.40;72.70;;;4.64;58.28;95316.44;5037941;28;20674;-78
2021/10/17 06:13:14;;;;;;;11.68;8.68;;;5.40;72.70;;;4.67;58.19;95323.91;5033534;28;20616;-79
2021/10/17 06:15:42;;;;;;;10.55;7.82;;;5.40;72.70;;;4.65;58.12;95324.06;5031333;28;20231;-79
2021/10/17 06:18:10;;;;;;;12.60;8.88;;;5.40;72.70;;;4.65;58.19;95328.44;5050147;28;20200;-78
2021/10/17 06:20:37;;;;;;;11.15;8.70;;;5.40;73.50;;;4.65;58.36;95325.84;5034986;28;20638;-78
2021/10/17 06:23:04;;;;;;;13.07;8.82;;;5.40;72.70;;;4.68;58.11;95330.75;5055601;28;20212;-78
2021/10/17 06:25:32;;;;;;;12.05;9.00;;;5.40;72.70;;;4.70;58.43;95330.59;5021248;28;20220;-79
2021/10/17 06:28:01;;;;;;;12.93;9.00;;;5.40;73.50;;;4.72;58.37;95329.50;5050773;28;20216;-77
2021/10/17 06:30:28;;;;;;;12.52;9.48;;;5.40;73.60;;;4.70;58.64;95328.00;5017086;28;20197;-77
2021/10/17 06:32:55;;;;;;;14.93;8.70;;;5.50;72.70;;;4.79;58.69;95340.13;5017105;28;20228;-78
2021/10/17 06:35:24;;;;;;;14.27;9.80;;;5.50;72.90;;;4.86;58.53;95336.00;5023767;28;20185;-78
2021/10/17 06:37:51;;;;;;;13.73;9.50;;;5.50;73.20;;;4.90;58.76;95328.72;5017358;28;20227;-79
2021/10/17 06:40:20;;;;;;;15.20;9.13;;;5.50;73.40;;;5.01;58.58;95343.31;5017555;28;20646;-78
2021/10/17 06:42:47;;;;;;;14.93;8.65;;;5.60;73.50;;;5.06;58.77;95336.69;5017068;28;20220;-78
2021/10/17 06:45:33;;;;;;;12.48;9.13;;;5.60;73.70;;;5.18;58.85;95345.09;5037849;28;20262;-77
2021/10/17 06:48:01;;;;;;;12.43;8.93;;;5.70;73.80;;;5.26;58.96;95342.59;5053004;28;20583;-78
2021/10/17 06:50:29;;;;;;;13.35;8.45;;;5.70;73.90;;;5.37;58.60;95340.72;5036701;28;20619;-79
2021/10/17 06:52:57;;;;;;;43.63;24.50;;;5.80;74.00;;;5.44;59.02;95344.34;5036387;28;20583;-79
2021/10/17 06:55:25;;;;;;;30.33;18.75;;;5.90;74.20;;;5.60;58.86;95347.09;5036381;28;20560;-79
2021/10/17 06:57:53;;;;;;;30.83;18.38;;;6.00;74.30;;;5.73;58.85;95349.31;5022727;28;20212;-79
2021/10/17 07:00:20;;;;;;;23.45;16.10;;;6.10;74.40;;;5.84;58.54;95345.66;5035664;28;20204;-79
2021/10/17 07:02:49;;;;;;;19.95;13.10;;;6.20;74.60;;;5.99;58.59;95353.75;5020223;28;20223;-79
2021/10/17 07:05:19;;;;;;;21.08;13.48;;;6.30;74.70;;;6.11;58.68;95351.72;5020479;28;20289;-80
2021/10/17 07:07:46;;;;;;;17.55;11.93;;;6.30;74.70;;;6.19;58.76;95345.75;5035887;28;20591;-80
2021/10/17 07:10:13;;;;;;;16.10;11.38;;;6.40;74.70;;;6.31;59.17;95349.75;5036331;28;20192;-79
2021/10/17 07:13:04;;;;;;;13.98;10.25;;;6.60;74.80;;;6.47;58.79;95354.22;5049605;28;20560;-79
2021/10/17 07:15:53;;;;;;;15.70;10.05;;;6.70;74.80;;;6.60;58.49;95352.97;5038827;28;20204;-79
2021/10/17 07:18:23;;;;;;;18.17;11.68;;;6.80;74.80;;;6.68;58.74;95350.41;5069120;28;20741;-79
2021/10/17 07:20:51;;;;;;;22.05;12.82;;;6.90;74.80;;;6.83;58.51;95354.03;5035866;28;20223;-78
2021/10/17 07:23:20;;;;;;;16.35;10.85;;;7.00;75.00;;;6.93;58.85;95350.50;5035309;28;20571;-80
2021/10/17 07:25:49;;;;;;;19.17;11.93;;;7.10;75.00;;;7.04;58.87;95351.03;5035745;28;20230;-80
2021/10/17 07:28:16;;;;;;;15.57;10.90;;;7.20;75.00;;;7.14;58.76;95343.06;5036055;28;20200;-80
2021/10/17 07:30:59;;;;;;;14.98;10.35;;;7.30;75.00;;;7.27;58.89;95353.03;5037195;28;20242;-80
2021/10/17 07:33:37;;;;;;;14.02;10.02;;;7.40;75.00;;;7.39;58.95;95352.72;5039615;28;20721;-79
2021/10/17 07:36:10;;;;;;;18.30;10.60;;;7.50;75.00;;;7.50;58.76;95360.25;5021088;28;20234;-79
2021/10/17 07:38:40;;;;;;;14.98;10.25;;;7.60;75.00;;;7.55;58.71;95346.72;5036226;28;20509;-79
2021/10/17 07:41:08;;;;;;;12.50;8.55;;;7.70;75.00;;;7.72;58.69;95352.75;5035644;28;20216;-80
2021/10/17 07:43:35;;;;;;;12.55;8.43;;;7.80;74.90;;;7.81;58.65;95349.97;5047678;28;20287;-78
2021/10/17 07:46:03;;;;;;;11.43;8.45;;;7.90;74.80;;;7.90;58.77;95348.19;5048115;28;20232;-79
2021/10/17 07:48:36;;;;;;;12.18;8.13;;;8.00;74.90;;;8.04;58.69;95351.91;5065010;28;20196;-80
2021/10/17 07:51:05;;;;;;;12.32;8.68;;;8.10;75.00;;;8.15;58.48;95351.59;5036383;28;20224;-79
2021/10/17 07:53:32;;;;;;;11.77;8.73;;;8.20;74.90;;;8.21;58.49;95339.66;5035222;28;20278;-80
2021/10/17 07:56:00;;;;;;;13.75;10.15;;;8.30;74.70;;;8.36;58.55;95358.09;5035271;28;20220;-80
2021/10/17 07:58:34;;;;;;;13.98;10.25;;;8.40;74.80;;;8.46;58.66;95360.53;5035797;28;20212;-80
2021/10/17 08:01:01;;;;;;;11.88;8.40;;;8.50;74.90;;;8.54;58.43;95344.81;5031632;28;20696;-79
2021/10/17 08:03:36;;;;;;;10.82;8.80;;;8.60;74.90;;;8.66;58.39;95353.13;5051766;28;20223;-79
2021/10/17 08:06:23;;;;;;;10.77;8.15;;;8.70;75.00;;;8.79;58.33;95347.38;5051402;28;20628;-79
2021/10/17 08:08:51;;;;;;;11.05;8.10;;;8.80;75.00;;;8.89;58.14;95339.31;5035209;28;20665;-79
2021/10/17 08:11:19;;;;;;;10.18;7.68;;;8.90;75.10;;;9.03;58.46;95349.03;5034123;28;20219;-79
2021/10/17 08:13:47;;;;;;;11.23;8.02;;;9.00;75.10;;;9.16;58.39;95345.88;5017964;28;20202;-79
2021/10/17 08:16:16;;;;;;;10.20;7.68;;;9.10;75.20;;;9.29;58.24;95348.75;5036097;28;20318;-79
2021/10/17 08:18:54;;;;;;;10.35;7.78;;;9.20;75.20;;;9.42;58.31;95345.56;5046563;28;20275;-78
2021/10/17 08:21:22;;;;;;;10.65;8.13;;;9.40;75.40;;;9.55;58.73;95338.94;5033502;28;20216;-78
2021/10/17 08:24:00;;;;;;;10.07;7.90;;;9.40;75.30;;;9.69;58.46;95347.81;5052956;28;20680;-78
2021/10/17 08:26:33;;;;;;;11.55;8.52;;;9.60;75.50;;;9.83;58.54;95335.78;5035085;28;20305;-79
2021/10/17 08:29:02;;;;;;;10.38;7.65;;;9.70;75.60;;;9.97;58.54;95340.22;5019509;28;20211;-78
2021/10/17 08:31:30;;;;;;;10.52;7.80;;;9.80;75.60;;;10.10;58.58;95340.44;5034616;28;20285;-79
2021/10/17 08:33:57;;;;;;;10.48;7.03;;;9.90;75.70;;;10.24;58.74;95344.09;5034208;28;20672;-79
2021/10/17 08:36:31;;;;;;;9.32;6.95;;;10.10;74.60;;;10.37;58.40;95340.84;5036554;28;20223;-80
2021/10/17 08:39:35;;;;;;;11.23;7.15;;;10.20;74.70;;;10.51;58.54;95341.88;5050974;28;20621;-79
2021/10/17 08:42:03;;;;;;;8.73;6.82;;;10.40;74.70;;;10.65;58.43;95342.84;5034489;28;20278;-79
2021/10/17 08:44:30;;;;;;;8.73;6.40;;;10.40;74.50;;;10.76;58.27;95335.53;5034723;28;20223;-79
2021/10/17 08:47:17;;;;;;;10.55;7.25;;;10.60;74.30;;;10.91;58.03;95343.41;5038822;28;20238;-80
2021/10/17 08:49:45;;;;;;;8.70;7.25;;;10.70;74.20;;;10.99;58.28;95341.47;5067160;28;20289;-80
2021/10/17 08:52:14;;;;;;;13.13;9.40;;;10.80;74.20;;;11.08;58.08;95336.94;5051096;28;20223;-80
2021/10/17 08:54:50;;;;;;;12.70;9.45;;;11.00;74.10;;;11.21;58.35;95344.16;5065983;28;20265;-79
2021/10/17 08:57:17;;;;;;;12.23;9.73;;;11.10;74.00;;;11.29;58.18;95345.84;5050238;28;20261;-80
2021/10/17 08:59:49;;;;;;;13.50;9.98;;;11.20;73.90;;;11.41;57.93;95341.72;5033927;28;20298;-79
2021/10/17 09:02:22;;;;;;;12.05;9.80;;;11.30;73.80;;;11.48;57.95;95333.94;5034583;28;20272;-79
2021/10/17 09:05:07;;;;;;;12.05;9.68;;;11.40;73.60;;;11.63;57.97;95341.75;5034189;28;20213;-79
2021/10/17 09:07:55;;;;;;;11.88;8.98;;;11.60;73.70;;;11.75;57.69;95344.69;5048198;28;20243;-79
2021/10/17 09:10:32;;;;;;;11.48;8.38;;;11.60;73.30;;;11.84;57.51;95333.88;5051050;28;20200;-79
2021/10/17 09:13:13;;;;;;;10.45;7.40;;;11.70;73.20;;;11.93;57.17;95331.91;5034337;28;20644;-80
2021/10/17 09:15:42;;;;;;;9.05;7.05;;;11.80;73.00;;;12.05;57.11;95331.41;5049501;28;20699;-79
2021/10/17 09:18:34;;;;;;;10.18;8.00;;;12.00;73.10;;;12.14;56.33;95343.44;5034294;28;20206;-80
2021/10/17 09:21:06;;;;;;;9.35;6.95;;;12.10;72.40;;;12.21;55.54;95339.03;5034487;28;20222;-80
2021/10/17 09:23:41;;;;;;;7.57;5.82;;;12.20;71.90;;;12.29;56.06;95333.63;5049295;28;20199;-80
2021/10/17 09:26:14;;;;;;;9.23;6.07;;;12.30;73.10;;;12.43;55.91;95337.16;5049702;28;20226;-81
2021/10/17 09:28:42;;;;;;;8.18;5.90;;;12.30;72.10;;;12.58;56.09;95336.25;5050758;28;20207;-80
2021/10/17 09:31:15;;;;;;;6.65;5.55;;;12.40;72.10;;;12.70;55.86;95332.06;5050468;28;20262;-79
2021/10/17 09:33:53;;;;;;;7.85;6.00;;;12.50;71.70;;;12.84;56.01;95326.84;5033975;28;20279;-81
2021/10/17 09:36:32;;;;;;;8.07;5.72;;;12.60;72.30;;;12.92;55.88;95324.84;5050946;28;20217;-80
2021/10/17 09:39:18;;;;;;;9.85;6.00;;;12.70;72.00;;;13.03;55.85;95343.75;5035367;28;20187;-80
2021/10/17 09:42:06;;;;;;;7.53;5.05;;;12.80;71.60;;;13.03;55.33;95331.38;5039132;28;20218;-80
2021/10/17 09:44:45;;;;;;;5.28;3.83;;;13.00;71.30;;;13.06;54.36;95331.00;5036836;28;20200;-80
2021/10/17 09:47:13;;;;;;;3.85;3.33;;;13.10;70.90;;;13.08;52.95;95343.97;5067240;28;20227;-80
2021/10/17 09:49:41;;;;;;;4.22;3.22;;;13.20;70.30;;;13.05;52.33;95333.81;5050685;28;20191;-80
2021/10/17 09:52:17;;;;;;;21.17;10.18;;;13.10;69.20;;;13.04;52.70;95332.22;5050412;28;20234;-80
2021/10/17 09:54:47;;;;;;;19.35;10.35;;;13.10;69.10;;;13.07;53.16;95337.91;5037060;28;20699;-80
2021/10/17 09:57:15;;;;;;;9.27;5.75;;;13.20;69.60;;;13.16;53.27;95340.34;5054128;28;20723;-80
2021/10/17 09:59:42;;;;;;;6.05;4.05;;;13.20;69.70;;;13.23;53.30;95338.56;5036550;28;20199;-81
2021/10/17 10:02:14;;;;;;;6.13;3.50;;;13.20;69.70;;;13.32;53.25;95333.91;5037560;28;20704;-81
2021/10/17 10:04:47;;;;;;;4.40;3.30;;;13.30;69.40;;;13.42;53.45;95337.81;5052764;28;20580;-80
2021/10/17 10:07:22;;;;;;;4.70;3.47;;;13.40;69.80;;;13.48;53.39;95330.16;5036855;28;20227;-80
2021/10/17 10:09:53;;;;;;;3.78;3.33;;;13.40;69.40;;;13.58;53.35;95338.47;5037892;28;20257;-80
2021/10/17 10:12:25;;;;;;;5.20;3.22;;;13.50;70.00;;;13.66;53.18;95343.56;5037750;28;20222;-81
2021/10/17 10:14:55;;;;;;;4.13;3.10;;;13.50;69.80;;;13.73;52.87;95331.22;5037896;28;20203;-80
2021/10/17 10:17:23;;;;;;;3.35;2.97;;;13.60;69.80;;;13.81;52.38;95343.38;5038102;28;20223;-79
2021/10/17 10:19:50;;;;;;;5.15;3.22;;;13.70;69.30;;;13.82;50.39;95352.09;5021087;28;20298;-79
2021/10/17 10:22:17;;;;;;;4.63;3.65;;;13.70;68.20;;;13.83;50.35;95343.16;5053747;28;20231;-79
2021/10/17 10:24:50;;;;;;;5.05;2.90;;;13.80;68.20;;;13.87;51.00;95341.78;5020254;28;20203;-80
2021/10/17 10:27:19;;;;;;;5.00;3.35;;;13.80;68.00;;;13.93;51.18;95347.03;5037002;28;20231;-79
2021/10/17 10:29:47;;;;;;;4.78;3.70;;;13.90;68.40;;;13.96;50.74;95343.19;5020258;28;20191;-79
2021/10/17 10:32:23;;;;;;;4.47;3.47;;;14.00;68.30;;;14.02;51.21;95341.56;5053712;28;20219;-79
2021/10/17 10:34:56;;;;;;;5.22;3.28;;;14.00;68.20;;;14.12;51.02;95338.53;5036432;28;20207;-81
2021/10/17 10:37:26;;;;;;;10.82;5.32;;;14.10;67.90;;;14.22;51.64;95336.28;5050186;28;20689;-80